Time;durP1;ratioP1;P1;durP2;ratioP2;P2;SDS_P1;SDS_P2;PMS_P1;PMS_P2;Temp;Humidity;BMP_temperature;BMP_pressure;BME280_temperature;BME280_humidity;BME280_pressure;Samples;Min_cycle;Max_cycle;Signal;HPM_P1;HPM_P2
2023/08/04 00:01:55;;;;;;;5.47;1.92;;;17.10;99.90;;;;;;6254714;22;20028;-64
2023/08/04 00:04:20;;;;;;;3.92;1.83;;;17.10;99.90;;;;;;6254460;22;20023;-64
2023/08/04 00:06:46;;;;;;;4.00;2.00;;;17.10;99.90;;;;;;6282762;22;20036;-64
2023/08/04 00:09:13;;;;;;;5.75;2.05;;;17.10;99.90;;;;;;6254132;22;20028;-64
2023/08/04 00:11:39;;;;;;;7.43;2.47;;;17.10;99.90;;;;;;6282700;22;20077;-65
2023/08/04 00:14:04;;;;;;;5.15;2.15;;;17.10;99.90;;;;;;6229366;22;20055;-64
2023/08/04 00:16:30;;;;;;;6.43;1.73;;;17.10;99.90;;;;;;6228971;22;20077;-64
2023/08/04 00:18:56;;;;;;;10.40;2.47;;;17.10;99.90;;;;;;6255266;22;20023;-64
2023/08/04 00:21:21;;;;;;;4.63;1.80;;;17.10;99.90;;;;;;6254194;22;20019;-65
2023/08/04 00:23:47;;;;;;;10.05;2.40;;;17.10;99.90;;;;;;6282416;22;20027;-64
2023/08/04 00:26:13;;;;;;;7.22;3.08;;;17.00;99.90;;;;;;6228282;22;20034;-64
2023/08/04 00:28:39;;;;;;;4.03;2.20;;;17.10;99.90;;;;;;6229701;22;20019;-64
2023/08/04 00:31:04;;;;;;;10.68;2.10;;;17.10;99.90;;;;;;6281736;22;20012;-64
2023/08/04 00:33:30;;;;;;;3.28;1.85;;;17.10;99.90;;;;;;6282040;22;20024;-64
2023/08/04 00:35:56;;;;;;;6.55;1.92;;;17.00;99.90;;;;;;6282267;22;20098;-64
2023/08/04 00:38:21;;;;;;;6.25;2.20;;;17.00;99.90;;;;;;6254189;22;20488;-64
2023/08/04 00:40:47;;;;;;;6.22;1.83;;;17.10;99.90;;;;;;6255179;22;20034;-64
2023/08/04 00:43:13;;;;;;;7.90;2.03;;;17.10;99.90;;;;;;6253624;22;20540;-65
2023/08/04 00:45:39;;;;;;;5.28;1.88;;;17.10;99.90;;;;;;6255095;22;20054;-65
2023/08/04 00:48:05;;;;;;;8.18;2.15;;;17.10;99.90;;;;;;6254251;22;20023;-64
2023/08/04 00:50:32;;;;;;;5.15;2.10;;;17.10;99.90;;;;;;6229333;22;20019;-65
2023/08/04 00:52:59;;;;;;;5.80;2.10;;;17.00;99.90;;;;;;6282395;22;20073;-65
2023/08/04 00:55:26;;;;;;;5.38;2.20;;;17.00;99.90;;;;;;6281442;22;20016;-63
2023/08/04 00:57:54;;;;;;;6.80;2.05;;;17.00;99.90;;;;;;6282366;22;20205;-65
2023/08/04 01:00:20;;;;;;;9.27;2.40;;;16.90;99.90;;;;;;6253926;22;20015;-64
2023/08/04 01:02:45;;;;;;;6.68;2.10;;;17.00;99.90;;;;;;6254642;22;20063;-64
2023/08/04 01:05:11;;;;;;;4.90;1.92;;;16.90;99.90;;;;;;6254327;22;20062;-65
2023/08/04 01:07:53;;;;;;;7.45;2.10;;;16.90;99.90;;;;;;6229348;22;20050;-64
2023/08/04 01:10:41;;;;;;;7.13;2.70;;;16.80;99.90;;;;;;6255052;22;20020;-64
2023/08/04 01:13:09;;;;;;;6.50;1.90;;;16.80;99.90;;;;;;6281235;22;20031;-65
2023/08/04 01:15:37;;;;;;;3.78;2.10;;;16.80;99.90;;;;;;6282574;22;20069;-64
2023/08/04 01:18:02;;;;;;;6.15;2.00;;;16.80;99.90;;;;;;6228796;22;20031;-66
2023/08/04 01:20:28;;;;;;;6.43;2.15;;;16.80;99.90;;;;;;6281834;22;20023;-64
2023/08/04 01:22:54;;;;;;;8.40;2.10;;;16.80;99.90;;;;;;6229016;22;20138;-64
2023/08/04 01:25:32;;;;;;;7.35;2.40;;;16.80;99.90;;;;;;6253541;22;20325;-65
2023/08/04 01:28:00;;;;;;;5.45;1.95;;;16.80;99.90;;;;;;6254624;22;20023;-64
2023/08/04 01:30:28;;;;;;;6.63;1.88;;;16.70;99.90;;;;;;6253709;22;20383;-64
2023/08/04 01:32:54;;;;;;;7.63;2.28;;;16.80;99.90;;;;;;6230176;22;20027;-65
2023/08/04 01:35:20;;;;;;;4.80;1.75;;;16.70;99.90;;;;;;6254209;22;20086;-65
2023/08/04 01:37:46;;;;;;;5.00;1.88;;;16.70;99.90;;;;;;6253883;22;20107;-64
2023/08/04 01:40:12;;;;;;;8.30;1.92;;;16.70;99.90;;;;;;6282073;22;20051;-64
2023/08/04 01:42:39;;;;;;;9.00;2.38;;;16.70;99.90;;;;;;6253951;22;20054;-64
2023/08/04 01:45:05;;;;;;;5.63;1.88;;;16.60;99.90;;;;;;6255123;22;20023;-64
2023/08/04 01:47:31;;;;;;;7.57;2.55;;;16.60;99.90;;;;;;6253323;22;20020;-64
2023/08/04 01:49:56;;;;;;;6.65;2.45;;;16.50;99.90;;;;;;6254949;22;20032;-65
2023/08/04 01:52:22;;;;;;;10.85;2.88;;;16.50;99.90;;;;;;6253643;22;20037;-65
2023/08/04 01:54:48;;;;;;;5.57;1.88;;;16.50;99.90;;;;;;6253915;22;21250;-64
2023/08/04 01:57:14;;;;;;;8.52;2.47;;;16.50;99.90;;;;;;6281281;22;20020;-65
2023/08/04 01:59:40;;;;;;;5.00;2.20;;;16.50;99.90;;;;;;6253415;22;20018;-64
2023/08/04 02:02:07;;;;;;;6.40;2.13;;;16.40;99.90;;;;;;6254312;22;20232;-64
2023/08/04 02:04:32;;;;;;;4.03;2.10;;;16.40;99.90;;;;;;6253016;22;20102;-65
2023/08/04 02:06:58;;;;;;;10.75;2.22;;;16.40;99.90;;;;;;6229186;22;20362;-64
2023/08/04 02:09:27;;;;;;;5.50;2.35;;;16.40;99.90;;;;;;6253492;22;20345;-64
2023/08/04 02:11:54;;;;;;;12.65;2.30;;;16.40;99.90;;;;;;6253784;22;20042;-65
2023/08/04 02:14:20;;;;;;;6.57;2.15;;;16.40;99.90;;;;;;6229262;22;20053;-63
2023/08/04 02:16:45;;;;;;;5.72;2.00;;;16.30;99.90;;;;;;6280726;22;20023;-64
2023/08/04 02:19:11;;;;;;;7.45;2.20;;;16.30;99.90;;;;;;6281557;22;20099;-65
2023/08/04 02:21:37;;;;;;;10.73;2.78;;;16.30;99.90;;;;;;6227794;22;20039;-64
2023/08/04 02:24:03;;;;;;;7.15;1.98;;;16.20;99.90;;;;;;6281743;22;20031;-64
2023/08/04 02:26:30;;;;;;;8.75;1.98;;;16.20;99.90;;;;;;6202208;22;20564;-64
2023/08/04 02:28:56;;;;;;;9.32;2.30;;;16.20;99.90;;;;;;6281170;22;20047;-64
2023/08/04 02:31:23;;;;;;;7.05;1.83;;;16.30;99.90;;;;;;6254090;22;20024;-64
2023/08/04 02:33:52;;;;;;;7.85;2.35;;;16.20;99.90;;;;;;6253026;22;20452;-64
2023/08/04 02:36:17;;;;;;;8.95;1.98;;;16.20;99.90;;;;;;6228713;22;20045;-65
2023/08/04 02:38:46;;;;;;;5.60;2.45;;;16.20;99.90;;;;;;6280194;22;20038;-65
2023/08/04 02:41:12;;;;;;;5.00;2.15;;;16.20;99.90;;;;;;6281493;22;20034;-65
2023/08/04 02:43:38;;;;;;;5.53;2.38;;;16.10;99.90;;;;;;6202600;22;20019;-64
2023/08/04 02:46:04;;;;;;;8.07;2.30;;;16.20;99.90;;;;;;6253589;22;20024;-64
2023/08/04 02:48:31;;;;;;;4.72;1.90;;;16.10;99.90;;;;;;6253609;22;20020;-64
2023/08/04 02:51:04;;;;;;;6.65;2.40;;;16.10;99.90;;;;;;6255113;22;20419;-64
2023/08/04 02:53:32;;;;;;;7.47;2.17;;;16.10;99.90;;;;;;6255227;22;20023;-64
2023/08/04 02:55:58;;;;;;;6.72;2.38;;;16.10;99.90;;;;;;6228848;22;20027;-65
2023/08/04 02:58:25;;;;;;;8.35;2.50;;;16.10;99.90;;;;;;6283574;22;20049;-65
2023/08/04 03:00:51;;;;;;;8.27;2.58;;;16.10;99.90;;;;;;6229551;22;20357;-64
2023/08/04 03:03:18;;;;;;;10.48;2.50;;;16.10;99.90;;;;;;6282962;22;20024;-65
2023/08/04 03:05:44;;;;;;;10.60;3.15;;;16.20;99.90;;;;;;6255684;22;20024;-65
2023/08/04 03:08:10;;;;;;;6.57;2.30;;;16.10;99.90;;;;;;6254741;22;20097;-64
2023/08/04 03:10:41;;;;;;;6.82;2.55;;;16.10;99.90;;;;;;6282873;22;20024;-65
2023/08/04 03:13:08;;;;;;;7.97;2.00;;;16.10;99.90;;;;;;6229476;22;20070;-65
2023/08/04 03:15:34;;;;;;;5.85;2.35;;;16.10;99.90;;;;;;6256184;22;20020;-64
2023/08/04 03:17:59;;;;;;;6.45;2.15;;;16.10;99.90;;;;;;6281958;22;20445;-65
2023/08/04 03:20:25;;;;;;;7.82;2.28;;;16.10;99.90;;;;;;6282838;22;20020;-64
2023/08/04 03:22:51;;;;;;;8.65;2.42;;;16.10;99.90;;;;;;6255654;22;20031;-64
2023/08/04 03:25:17;;;;;;;11.68;2.28;;;16.10;99.90;;;;;;6228751;22;20545;-64
2023/08/04 03:27:43;;;;;;;5.10;2.00;;;16.10;99.90;;;;;;6255756;22;20134;-65
2023/08/04 03:30:09;;;;;;;5.38;2.00;;;16.20;99.90;;;;;;6254268;22;20354;-64
2023/08/04 03:32:34;;;;;;;5.53;2.58;;;16.20;99.90;;;;;;6255882;22;20031;-65
2023/08/04 03:35:04;;;;;;;4.97;2.15;;;16.20;99.90;;;;;;6254630;22;20077;-64
2023/08/04 03:37:29;;;;;;;7.25;2.13;;;16.10;99.90;;;;;;6229590;22;20074;-65
2023/08/04 03:39:55;;;;;;;7.82;2.10;;;16.10;99.90;;;;;;6229750;22;20032;-64
2023/08/04 03:42:21;;;;;;;3.35;1.73;;;16.10;99.90;;;;;;6281643;22;20023;-65
2023/08/04 03:44:46;;;;;;;5.63;2.10;;;16.20;99.90;;;;;;6282939;22;20555;-64
2023/08/04 03:47:12;;;;;;;4.35;1.65;;;16.20;99.90;;;;;;6254393;22;20024;-65
2023/08/04 03:49:38;;;;;;;7.30;2.22;;;16.20;99.90;;;;;;6255799;22;20436;-64
2023/08/04 03:52:04;;;;;;;6.88;2.05;;;16.20;99.90;;;;;;6254354;22;20027;-64
2023/08/04 03:54:30;;;;;;;3.85;1.85;;;16.20;99.90;;;;;;6255349;22;20407;-65
2023/08/04 03:56:56;;;;;;;5.07;2.00;;;16.20;99.90;;;;;;6281791;22;20086;-65
2023/08/04 03:59:22;;;;;;;6.40;2.00;;;16.20;99.90;;;;;;6254963;22;20024;-64
2023/08/04 04:01:47;;;;;;;2.75;2.05;;;16.20;99.90;;;;;;6282126;22;20022;-64
2023/08/04 04:04:13;;;;;;;8.38;2.28;;;16.20;99.90;;;;;;6254362;22;20023;-65
2023/08/04 04:06:39;;;;;;;6.00;1.80;;;16.20;99.90;;;;;;6282922;22;20016;-65
2023/08/04 04:09:05;;;;;;;5.35;2.10;;;16.20;99.90;;;;;;6254081;22;20044;-63
2023/08/04 04:11:30;;;;;;;5.65;2.10;;;16.20;99.90;;;;;;6254803;22;20024;-64
2023/08/04 04:13:56;;;;;;;4.78;1.88;;;16.20;99.90;;;;;;6254745;22;20038;-64
2023/08/04 04:16:22;;;;;;;3.85;2.17;;;16.20;99.90;;;;;;6254479;22;20058;-64
2023/08/04 04:18:47;;;;;;;5.00;1.88;;;16.20;99.90;;;;;;6255177;22;20075;-65
2023/08/04 04:21:13;;;;;;;3.75;1.92;;;16.20;99.90;;;;;;6228948;22;20028;-65
2023/08/04 04:23:39;;;;;;;6.47;2.17;;;16.20;99.90;;;;;;6282417;22;20089;-64
2023/08/04 04:26:07;;;;;;;4.43;2.05;;;16.20;99.90;;;;;;6253692;22;20161;-64
2023/08/04 04:28:33;;;;;;;3.47;2.10;;;16.10;99.90;;;;;;6255410;22;20460;-64
2023/08/04 04:31:05;;;;;;;5.35;2.08;;;16.10;99.90;;;;;;6229316;22;20020;-64
2023/08/04 04:33:31;;;;;;;3.42;2.17;;;16.10;99.90;;;;;;6254807;22;20027;-64
2023/08/04 04:35:57;;;;;;;7.70;2.40;;;16.10;99.90;;;;;;6254705;22;20024;-64
2023/08/04 04:38:28;;;;;;;6.00;2.47;;;16.10;99.90;;;;;;6228705;22;20024;-65
2023/08/04 04:40:58;;;;;;;4.28;2.47;;;16.10;99.90;;;;;;6255263;22;20105;-64
2023/08/04 04:43:24;;;;;;;7.55;2.42;;;16.10;99.90;;;;;;6228924;22;20536;-65
2023/08/04 04:45:51;;;;;;;7.43;2.53;;;16.10;99.90;;;;;;6255122;22;20668;-64
2023/08/04 04:48:19;;;;;;;5.43;2.58;;;16.10;99.90;;;;;;6281195;22;20028;-65
2023/08/04 04:50:45;;;;;;;4.00;2.05;;;16.10;99.90;;;;;;6254457;22;20085;-64
2023/08/04 04:53:10;;;;;;;4.95;2.75;;;16.10;99.90;;;;;;6229432;22;20023;-63
2023/08/04 04:55:38;;;;;;;7.47;2.10;;;16.10;99.90;;;;;;6281174;22;20042;-64
2023/08/04 04:58:04;;;;;;;5.25;2.45;;;16.10;99.90;;;;;;6255470;22;20445;-65
2023/08/04 05:00:34;;;;;;;3.50;2.45;;;16.10;99.90;;;;;;6204496;22;20027;-65
2023/08/04 05:03:00;;;;;;;4.70;2.30;;;16.20;99.90;;;;;;6230049;22;20026;-64
2023/08/04 05:05:31;;;;;;;5.45;2.40;;;16.20;99.90;;;;;;6229508;22;20204;-63
2023/08/04 05:07:56;;;;;;;5.40;1.85;;;16.20;99.90;;;;;;6281669;22;20109;-65
2023/08/04 05:10:22;;;;;;;3.78;2.17;;;16.20;99.90;;;;;;6254893;22;20079;-64
2023/08/04 05:12:48;;;;;;;3.80;2.35;;;16.20;99.90;;;;;;6281251;22;20023;-64
2023/08/04 05:15:14;;;;;;;3.80;2.45;;;16.20;99.90;;;;;;6255443;22;20088;-64
2023/08/04 05:17:39;;;;;;;3.83;1.90;;;16.20;99.90;;;;;;6228576;22;20027;-64
2023/08/04 05:20:06;;;;;;;4.80;2.10;;;16.20;99.90;;;;;;6282298;22;20027;-65
2023/08/04 05:22:32;;;;;;;3.05;2.30;;;16.30;99.90;;;;;;6282273;22;20027;-65
2023/08/04 05:24:57;;;;;;;5.45;2.08;;;16.20;99.90;;;;;;6254282;22;20024;-64
2023/08/04 05:27:26;;;;;;;5.07;2.13;;;16.30;99.90;;;;;;6282374;22;20051;-65
2023/08/04 05:29:52;;;;;;;3.35;2.10;;;16.20;99.90;;;;;;6281656;22;20035;-65
2023/08/04 05:32:17;;;;;;;4.55;2.40;;;16.30;99.90;;;;;;6229937;22;20019;-64
2023/08/04 05:34:43;;;;;;;2.30;1.85;;;16.30;99.90;;;;;;6253052;22;20482;-64
2023/08/04 05:37:13;;;;;;;7.95;2.35;;;16.30;99.90;;;;;;6229158;22;20043;-64
2023/08/04 05:39:39;;;;;;;4.53;2.58;;;16.30;99.90;;;;;;6254175;22;20046;-65
2023/08/04 05:42:06;;;;;;;2.85;1.60;;;16.30;99.90;;;;;;6253956;22;20016;-64
2023/08/04 05:44:32;;;;;;;2.35;1.73;;;16.30;99.90;;;;;;6254696;22;20385;-66
2023/08/04 05:47:01;;;;;;;4.50;2.22;;;16.40;99.90;;;;;;6253459;22;20023;-64
2023/08/04 05:49:33;;;;;;;5.15;2.45;;;16.30;99.90;;;;;;6254391;22;20550;-63
2023/08/04 05:51:59;;;;;;;3.63;2.10;;;16.40;99.90;;;;;;6280676;22;20129;-65
2023/08/04 05:54:25;;;;;;;3.42;1.88;;;16.40;99.90;;;;;;6254179;22;20019;-64
2023/08/04 05:56:51;;;;;;;2.65;1.75;;;16.40;99.90;;;;;;6228271;22;20030;-64
2023/08/04 05:59:17;;;;;;;3.17;1.98;;;16.40;99.90;;;;;;6279780;22;20027;-66
2023/08/04 06:01:46;;;;;;;2.80;1.73;;;16.50;99.90;;;;;;6227771;22;20043;-65
2023/08/04 06:04:13;;;;;;;3.75;1.85;;;16.50;99.90;;;;;;6252931;22;20044;-66
2023/08/04 06:06:39;;;;;;;4.93;2.08;;;16.50;99.90;;;;;;6281753;22;20067;-65
2023/08/04 06:09:05;;;;;;;2.67;1.60;;;16.60;99.90;;;;;;6252842;22;20027;-65
2023/08/04 06:11:32;;;;;;;5.90;1.90;;;16.50;99.90;;;;;;6228733;22;20163;-66
2023/08/04 06:14:00;;;;;;;7.20;2.20;;;16.70;99.90;;;;;;6253728;22;20081;-65
2023/08/04 06:16:26;;;;;;;6.68;1.92;;;16.70;99.90;;;;;;6252765;22;20023;-65
2023/08/04 06:18:54;;;;;;;3.53;1.60;;;16.60;99.90;;;;;;6252329;22;20110;-65
2023/08/04 06:21:20;;;;;;;7.65;2.08;;;16.80;99.90;;;;;;6252618;22;20023;-64
2023/08/04 06:23:49;;;;;;;4.80;1.90;;;16.80;99.90;;;;;;6280318;22;20131;-64
2023/08/04 06:26:15;;;;;;;7.63;1.67;;;16.90;99.90;;;;;;6283196;22;20047;-64
2023/08/04 06:28:41;;;;;;;3.40;1.90;;;16.90;99.90;;;;;;6257292;22;20019;-65
2023/08/04 06:31:09;;;;;;;3.25;1.63;;;17.00;99.90;;;;;;6256722;22;20027;-64
2023/08/04 06:33:35;;;;;;;3.60;1.65;;;17.00;99.90;;;;;;6256072;22;20076;-66
2023/08/04 06:36:01;;;;;;;4.63;1.70;;;17.10;99.90;;;;;;6284482;22;20054;-65
2023/08/04 06:38:26;;;;;;;3.47;1.70;;;17.10;99.90;;;;;;6256443;22;20036;-65
2023/08/04 06:40:52;;;;;;;2.70;1.80;;;17.10;99.90;;;;;;6257697;22;20051;-65
2023/08/04 06:43:18;;;;;;;2.13;1.35;;;17.10;99.90;;;;;;6256277;22;20070;-65
2023/08/04 06:45:44;;;;;;;2.92;1.50;;;17.10;99.90;;;;;;6257108;22;20027;-64
2023/08/04 06:48:09;;;;;;;5.30;1.67;;;17.10;99.90;;;;;;6256399;22;20047;-65
2023/08/04 06:50:35;;;;;;;3.70;1.65;;;17.20;99.90;;;;;;6256358;22;20019;-65
2023/08/04 06:53:01;;;;;;;3.00;1.60;;;17.20;99.90;;;;;;6256686;22;20119;-66
2023/08/04 06:55:27;;;;;;;2.72;1.35;;;17.30;99.90;;;;;;6230592;22;20024;-65
2023/08/04 06:57:52;;;;;;;6.07;1.75;;;17.30;99.90;;;;;;6207080;22;20458;-65
2023/08/04 07:00:18;;;;;;;4.25;1.42;;;17.30;99.90;;;;;;6255586;22;20066;-65
2023/08/04 07:02:48;;;;;;;3.55;1.50;;;17.40;99.90;;;;;;6230483;22;20024;-65
2023/08/04 07:05:14;;;;;;;2.85;1.35;;;17.40;99.90;;;;;;6230318;22;20023;-66
2023/08/04 07:07:40;;;;;;;3.75;1.45;;;17.40;99.90;;;;;;6283249;22;20015;-65
2023/08/04 07:10:06;;;;;;;5.57;1.55;;;17.50;99.90;;;;;;6283655;22;20445;-65
2023/08/04 07:12:33;;;;;;;2.53;1.33;;;17.50;99.90;;;;;;6255787;22;20016;-66
2023/08/04 07:14:59;;;;;;;3.13;1.63;;;17.50;99.90;;;;;;6256517;22;20027;-65
2023/08/04 07:17:24;;;;;;;3.42;1.20;;;17.60;99.90;;;;;;6254842;22;20027;-65
2023/08/04 07:19:53;;;;;;;5.20;1.38;;;17.50;99.90;;;;;;6284248;22;20039;-67
2023/08/04 07:22:19;;;;;;;4.03;1.38;;;17.60;99.90;;;;;;6255839;22;20068;-65
2023/08/04 07:24:47;;;;;;;3.78;1.40;;;17.60;99.90;;;;;;6255734;22;20062;-64
2023/08/04 07:27:13;;;;;;;2.78;1.20;;;17.70;99.90;;;;;;6284051;22;20024;-66
2023/08/04 07:29:44;;;;;;;4.80;1.33;;;17.80;99.90;;;;;;6283834;22;20062;-66
2023/08/04 07:32:10;;;;;;;2.10;1.20;;;17.80;99.90;;;;;;6257389;22;20031;-65
2023/08/04 07:34:36;;;;;;;2.95;1.25;;;17.80;99.90;;;;;;6283136;22;20073;-65
2023/08/04 07:37:01;;;;;;;3.20;1.40;;;17.90;99.90;;;;;;6255213;22;20047;-64
2023/08/04 07:39:27;;;;;;;1.80;1.40;;;17.90;99.90;;;;;;6255080;22;20026;-64
2023/08/04 07:41:53;;;;;;;2.58;1.02;;;17.90;99.90;;;;;;6254966;22;20074;-65
2023/08/04 07:44:24;;;;;;;2.55;1.30;;;18.00;99.90;;;;;;6283366;22;20047;-65
2023/08/04 07:46:50;;;;;;;3.50;1.27;;;18.00;99.90;;;;;;6230022;22;20071;-64
2023/08/04 07:49:16;;;;;;;3.28;0.98;;;18.10;99.90;;;;;;6283963;22;20067;-64
2023/08/04 07:51:43;;;;;;;2.03;0.90;;;18.10;99.90;;;;;;6255132;22;20043;-65
2023/08/04 07:54:09;;;;;;;5.80;1.15;;;18.20;99.90;;;;;;6283804;22;20089;-64
2023/08/04 07:56:35;;;;;;;2.90;1.00;;;18.30;99.90;;;;;;6255415;22;20039;-64
2023/08/04 07:59:02;;;;;;;4.07;1.27;;;18.30;99.90;;;;;;6255831;22;20028;-65
2023/08/04 08:01:27;;;;;;;3.10;1.40;;;18.40;99.90;;;;;;6256334;22;20348;-65
2023/08/04 08:03:53;;;;;;;2.70;1.08;;;18.40;99.90;;;;;;6229816;22;20020;-66
2023/08/04 08:06:19;;;;;;;2.90;1.17;;;18.40;99.90;;;;;;6256272;22;20483;-65
2023/08/04 08:08:46;;;;;;;2.75;1.13;;;18.50;99.90;;;;;;6229693;22;20019;-64
2023/08/04 08:11:12;;;;;;;2.97;1.50;;;18.50;99.90;;;;;;6231051;22;20020;-65
2023/08/04 08:13:38;;;;;;;2.65;1.38;;;18.60;99.90;;;;;;6253766;22;20066;-64
2023/08/04 08:16:15;;;;;;;3.70;1.15;;;18.70;99.90;;;;;;6255729;22;20019;-64
2023/08/04 08:18:41;;;;;;;3.13;1.20;;;18.60;99.90;;;;;;6283403;22;20030;-64
2023/08/04 08:21:08;;;;;;;2.03;1.10;;;18.60;99.90;;;;;;6282599;22;20038;-65
2023/08/04 08:23:35;;;;;;;3.50;1.15;;;18.60;99.90;;;;;;6230876;22;20667;-65
2023/08/04 08:26:02;;;;;;;4.53;1.40;;;18.70;99.90;;;;;;6254863;22;20015;-64
2023/08/04 08:28:28;;;;;;;1.63;1.10;;;18.70;99.90;;;;;;6256184;22;20027;-65
2023/08/04 08:30:53;;;;;;;2.03;1.15;;;18.70;99.90;;;;;;6283056;22;20526;-64
2023/08/04 08:33:19;;;;;;;2.35;1.15;;;18.60;99.90;;;;;;6256053;22;20083;-65
2023/08/04 08:35:45;;;;;;;3.70;1.38;;;18.60;99.90;;;;;;6256054;22;20038;-64
2023/08/04 08:38:16;;;;;;;2.13;1.08;;;18.70;99.90;;;;;;6282551;22;20020;-64
2023/08/04 08:40:42;;;;;;;3.58;1.40;;;18.70;99.90;;;;;;6283943;22;20024;-65
2023/08/04 08:43:08;;;;;;;3.47;1.30;;;18.70;99.90;;;;;;6282639;22;20022;-65
2023/08/04 08:45:34;;;;;;;2.92;1.10;;;18.60;99.90;;;;;;6256487;22;20016;-65
2023/08/04 08:48:00;;;;;;;6.07;1.67;;;18.70;99.90;;;;;;6282811;22;20510;-64
2023/08/04 08:50:27;;;;;;;0.90;0.90;;;18.70;99.90;;;;;;6230916;22;20047;-65
2023/08/04 08:53:13;;;;;;;2.25;1.20;;;18.80;99.90;;;;;;6230962;22;20058;-66
2023/08/04 08:55:41;;;;;;;5.05;1.90;;;18.80;99.90;;;;;;6254769;22;20045;-64
2023/08/04 08:58:08;;;;;;;1.92;1.02;;;18.80;99.90;;;;;;6282703;22;20030;-65
2023/08/04 09:00:35;;;;;;;2.17;1.08;;;18.90;99.90;;;;;;6255583;22;20453;-65
2023/08/04 09:03:03;;;;;;;1.48;1.23;;;18.90;99.90;;;;;;6283438;22;20550;-64
2023/08/04 09:05:31;;;;;;;5.57;1.58;;;18.90;99.90;;;;;;6283150;22;20081;-65
2023/08/04 09:07:57;;;;;;;2.53;1.13;;;18.80;99.90;;;;;;6230105;22;20027;-66
2023/08/04 09:10:23;;;;;;;2.00;1.27;;;18.90;99.90;;;;;;6256726;22;20028;-65
2023/08/04 09:12:56;;;;;;;1.38;1.13;;;19.00;99.90;;;;;;6254863;22;20090;-65
2023/08/04 09:15:45;;;;;;;1.70;1.23;;;19.00;99.90;;;;;;6283531;22;20027;-64
2023/08/04 09:18:42;;;;;;;4.40;1.20;;;19.20;99.90;;;;;;6230404;22;20054;-65
2023/08/04 09:21:08;;;;;;;2.08;1.40;;;19.30;99.90;;;;;;6255200;22;20058;-65
2023/08/04 09:23:47;;;;;;;3.75;1.27;;;19.40;99.90;;;;;;6256001;22;20024;-65
2023/08/04 09:26:13;;;;;;;1.75;1.23;;;19.60;99.90;;;;;;6254121;22;20135;-65
2023/08/04 09:28:42;;;;;;;3.40;1.38;;;19.50;99.90;;;;;;6230966;22;20023;-65
2023/08/04 09:31:10;;;;;;;3.75;1.15;;;19.60;99.90;;;;;;6282917;22;20024;-65
2023/08/04 09:33:41;;;;;;;3.00;1.30;;;19.50;99.90;;;;;;6282298;22;20046;-64
2023/08/04 09:36:08;;;;;;;2.00;0.82;;;19.50;99.90;;;;;;6230408;22;20024;-64
2023/08/04 09:38:35;;;;;;;2.03;0.70;;;19.60;99.90;;;;;;6254748;22;20026;-67
2023/08/04 09:41:02;;;;;;;1.67;0.70;;;19.50;99.90;;;;;;6230304;22;20016;-65
2023/08/04 09:43:31;;;;;;;0.60;0.60;;;19.40;99.90;;;;;;6282004;22;20027;-64
2023/08/04 09:46:07;;;;;;;1.52;0.70;;;19.10;99.90;;;;;;6282589;22;20027;-64
2023/08/04 09:48:33;;;;;;;1.40;0.60;;;19.00;99.90;;;;;;6282929;22;20028;-64
2023/08/04 09:51:10;;;;;;;1.65;0.77;;;18.90;99.90;;;;;;6281610;22;20079;-67
2023/08/04 09:53:43;;;;;;;1.48;0.68;;;18.70;99.90;;;;;;6282540;22;20059;-70
2023/08/04 09:56:13;;;;;;;4.45;0.90;;;18.50;99.90;;;;;;6253198;22;20023;-68
2023/08/04 09:58:41;;;;;;;0.88;0.70;;;18.40;99.90;;;;;;6254473;22;20020;-69
2023/08/04 10:01:07;;;;;;;0.57;0.50;;;18.30;99.90;;;;;;6255414;22;21036;-66
2023/08/04 10:03:39;;;;;;;1.08;0.70;;;18.20;99.90;;;;;;6228687;22;20047;-66
2023/08/04 10:06:06;;;;;;;0.93;0.60;;;18.20;99.90;;;;;;6282752;22;20016;-66
2023/08/04 10:08:39;;;;;;;0.90;0.75;;;18.30;99.90;;;;;;6228785;22;20024;-67
2023/08/04 10:11:06;;;;;;;1.80;0.88;;;18.30;99.90;;;;;;6255406;22;20020;-67
2023/08/04 10:13:48;;;;;;;2.58;1.17;;;18.40;99.90;;;;;;6254673;22;20653;-65
2023/08/04 10:16:15;;;;;;;2.50;0.80;;;18.50;99.90;;;;;;6228629;22;20575;-67
2023/08/04 10:18:53;;;;;;;1.52;1.00;;;18.50;99.90;;;;;;6282402;22;20073;-66
2023/08/04 10:21:39;;;;;;;1.95;0.90;;;18.50;99.90;;;;;;6254117;22;20023;-66
2023/08/04 10:24:06;;;;;;;2.70;1.40;;;18.60;99.90;;;;;;6282600;22;20056;-66
2023/08/04 10:26:45;;;;;;;3.45;1.30;;;18.60;99.90;;;;;;6228855;22;20034;-66
2023/08/04 10:29:11;;;;;;;1.55;1.25;;;18.70;99.90;;;;;;6254665;22;20019;-65
2023/08/04 10:31:59;;;;;;;2.85;1.40;;;18.80;99.90;;;;;;6255105;22;20039;-66
2023/08/04 10:34:32;;;;;;;3.55;1.30;;;19.00;99.90;;;;;;6281398;22;20024;-64
2023/08/04 10:37:04;;;;;;;4.30;1.20;;;19.10;99.90;;;;;;6282231;22;20054;-67
2023/08/04 10:39:55;;;;;;;5.60;1.65;;;19.10;99.90;;;;;;6254526;22;20020;-66
2023/08/04 10:42:25;;;;;;;5.35;1.55;;;19.20;99.90;;;;;;6254170;22;20031;-66
2023/08/04 10:44:56;;;;;;;6.05;1.52;;;19.30;99.90;;;;;;6282365;22;20024;-66
2023/08/04 10:47:40;;;;;;;4.18;1.67;;;19.40;99.90;;;;;;6227957;22;20024;-67
2023/08/04 10:50:07;;;;;;;2.45;1.33;;;19.60;99.90;;;;;;6254582;22;20078;-67
2023/08/04 10:52:38;;;;;;;4.38;1.50;;;19.80;99.90;;;;;;6281741;22;20068;-67
2023/08/04 10:55:06;;;;;;;4.07;1.15;;;19.90;99.90;;;;;;6281018;22;20497;-68
2023/08/04 10:57:33;;;;;;;3.47;1.50;;;20.00;99.90;;;;;;6228634;22;20028;-67
2023/08/04 11:00:00;;;;;;;5.28;2.70;;;20.10;99.90;;;;;;6252643;22;20048;-66
2023/08/04 11:02:27;;;;;;;3.72;1.30;;;20.10;99.90;;;;;;6228653;22;20062;-66
2023/08/04 11:04:54;;;;;;;1.67;1.00;;;20.10;99.90;;;;;;6279909;22;20057;-67
2023/08/04 11:07:21;;;;;;;3.78;1.98;;;20.00;99.90;;;;;;6280414;22;20031;-66
2023/08/04 11:09:48;;;;;;;3.22;1.30;;;19.90;99.90;;;;;;6253863;22;20540;-66
2023/08/04 11:12:15;;;;;;;4.43;2.00;;;19.80;99.90;;;;;;6281278;22;20039;-68
2023/08/04 11:14:41;;;;;;;3.80;1.63;;;19.70;99.90;;;;;;6255885;22;20461;-66
2023/08/04 11:17:18;;;;;;;6.07;1.80;;;19.70;99.90;;;;;;6281459;22;20027;-67
2023/08/04 11:19:46;;;;;;;3.10;1.42;;;19.80;99.90;;;;;;6255431;22;20038;-67
2023/08/04 11:22:17;;;;;;;3.85;1.58;;;19.80;99.90;;;;;;6281134;22;20026;-66
2023/08/04 11:24:44;;;;;;;8.50;2.97;;;19.70;99.90;;;;;;6254113;22;20081;-69
2023/08/04 11:27:11;;;;;;;3.55;1.60;;;19.70;99.90;;;;;;6230155;22;20030;-67
2023/08/04 11:29:40;;;;;;;4.20;1.48;;;19.80;99.90;;;;;;6281209;22;20028;-67
2023/08/04 11:32:10;;;;;;;6.32;1.77;;;19.90;99.90;;;;;;6255369;22;20108;-66
2023/08/04 11:34:38;;;;;;;4.57;1.40;;;20.00;99.90;;;;;;6281640;22;20360;-67
2023/08/04 11:37:04;;;;;;;4.15;1.30;;;20.00;99.90;;;;;;6255178;22;20028;-71
2023/08/04 11:39:30;;;;;;;3.78;1.48;;;20.10;99.90;;;;;;6255012;22;20074;-67
2023/08/04 11:41:56;;;;;;;3.30;1.60;;;20.20;99.90;;;;;;6281375;22;20027;-67
2023/08/04 11:44:22;;;;;;;4.03;1.95;;;20.40;99.90;;;;;;6230423;22;20079;-66
2023/08/04 11:46:54;;;;;;;5.65;1.20;;;20.40;99.90;;;;;;6254172;22;20024;-69
2023/08/04 11:49:20;;;;;;;3.95;1.55;;;20.40;99.90;;;;;;6230333;22;20044;-66
2023/08/04 11:51:46;;;;;;;3.97;1.30;;;20.40;99.90;;;;;;6253238;22;20118;-69
2023/08/04 11:54:23;;;;;;;4.32;1.35;;;20.50;99.90;;;;;;6282811;22;20024;-68
2023/08/04 11:56:59;;;;;;;3.22;1.30;;;20.40;99.90;;;;;;6254650;22;20072;-68
2023/08/04 11:59:25;;;;;;;2.03;1.33;;;20.40;99.90;;;;;;6254194;22;20023;-69
2023/08/04 12:02:05;;;;;;;4.55;1.90;;;20.40;99.90;;;;;;6282757;22;20043;-67
2023/08/04 12:04:30;;;;;;;3.63;1.60;;;20.30;99.90;;;;;;6253608;22;20019;-67
2023/08/04 12:07:01;;;;;;;3.75;1.30;;;20.00;99.90;;;;;;6254917;22;20062;-67
2023/08/04 12:09:27;;;;;;;5.78;1.52;;;19.90;99.90;;;;;;6282264;22;20027;-67
2023/08/04 12:11:53;;;;;;;5.72;1.40;;;19.90;99.90;;;;;;6281420;22;20034;-67
2023/08/04 12:14:22;;;;;;;3.67;1.58;;;19.70;99.90;;;;;;6255345;22;20019;-67
2023/08/04 12:16:48;;;;;;;3.08;1.42;;;19.60;99.90;;;;;;6253546;22;20030;-67
2023/08/04 12:19:13;;;;;;;3.53;1.30;;;19.60;99.90;;;;;;6255407;22;20103;-67
2023/08/04 12:21:39;;;;;;;5.30;1.67;;;19.60;99.90;;;;;;6253025;22;20058;-67
2023/08/04 12:24:05;;;;;;;3.35;1.58;;;19.60;99.90;;;;;;6255131;22;20027;-68
2023/08/04 12:26:31;;;;;;;6.15;1.50;;;19.60;99.90;;;;;;6281632;22;20102;-67
2023/08/04 12:28:56;;;;;;;5.50;1.20;;;19.70;99.90;;;;;;6228946;22;20204;-67
2023/08/04 12:31:22;;;;;;;2.90;1.65;;;19.70;99.90;;;;;;6254848;22;20035;-67
2023/08/04 12:33:48;;;;;;;3.42;1.20;;;19.90;99.90;;;;;;6253718;22;20020;-66
2023/08/04 12:36:14;;;;;;;3.47;1.38;;;19.90;99.90;;;;;;6282205;22;20081;-68
2023/08/04 12:38:39;;;;;;;4.00;1.52;;;19.90;99.90;;;;;;6228308;22;20019;-67
2023/08/04 12:41:05;;;;;;;3.08;1.33;;;19.80;99.90;;;;;;6282417;22;20031;-66
2023/08/04 12:43:33;;;;;;;4.60;1.33;;;19.80;99.90;;;;;;6254617;22;20054;-69
2023/08/04 12:45:59;;;;;;;3.00;1.30;;;19.70;99.90;;;;;;6228358;22;20098;-70
2023/08/04 12:48:24;;;;;;;4.35;1.30;;;19.70;99.90;;;;;;6255196;22;20019;-68